Portada
METAR-TAF:

METAR-TAF

Aeropuertos :

Leh, India

latitud: 34-08-09N, longitud: 077-32-47E, altitud: 3256 m

METAR: falta

Hora: 16:30 (11:00 UTC)

Pronóstico

El informe se hizo hace 7 horas y 30 minutos, a las 03:30 UTC
Pronóstico válido del 20 a las 06 UTC al 20 a las 18 UTC
Viento 2 kt con dirección variable
Visibilidad: 6000 m
Escasas nubes a una altura de 6000 ft
Nubes dispersas a una altura de 10000 ft
Cielo nuboso a una altura de 15000 ft
Evolucionando progresivamente
del 20 a las 05 UTC al 20 a las 08 UTC
Viento 5 kt del oeste-suroeste
Visibilidad: 6000 m
Escasas nubes a una altura de 7000 ft
Nubes dispersas a una altura de 15000 ft

TAF: VILH 200330Z 2006/2018 VRB02KT 6000 SOCC FEW060 SCT100 BKN150 BECMG 2005/2008 25005KT 6000 FEW070 SCT150

Observaciones y pronósticos meteorológicos de más de 4000 aeropuertos (mensajes METAR y TAF).

Los puntos amarillos y rojos representan las estaciones disponibles.

Ponga el ratón en el punto deseado para ver el nombre de la estación.

Haga clic para ver las observaciones y los pronósticos meteorológicos.

Para cambiar el mapa : haga clic en los botones verdes con una cruz de color negro para hacer un zoom, en el botón verde con un guión para alejar o en las flechas verdes para mapas adyacentes.


METAR-TAF: